sensor_id;sensor_type;location;lat;lon;timestamp;P1;durP1;ratioP1;P2;durP2;ratioP2
78787;SDS011;68131;52.508;5.502;2024-03-22T00:00:23;20.63;;;9.55;;
78787;SDS011;68131;52.508;5.502;2024-03-22T00:02:49;22.23;;;9.48;;
78787;SDS011;68131;52.508;5.502;2024-03-22T00:05:18;25.10;;;10.85;;
78787;SDS011;68131;52.508;5.502;2024-03-22T00:07:45;19.65;;;8.85;;
78787;SDS011;68131;52.508;5.502;2024-03-22T00:10:14;20.45;;;7.97;;
78787;SDS011;68131;52.508;5.502;2024-03-22T00:12:41;19.42;;;8.52;;
78787;SDS011;68131;52.508;5.502;2024-03-22T00:15:08;18.95;;;7.85;;
78787;SDS011;68131;52.508;5.502;2024-03-22T00:17:35;22.50;;;10.15;;
78787;SDS011;68131;52.508;5.502;2024-03-22T00:20:01;17.10;;;8.80;;
78787;SDS011;68131;52.508;5.502;2024-03-22T00:22:30;24.95;;;11.00;;
78787;SDS011;68131;52.508;5.502;2024-03-22T00:24:57;21.02;;;9.25;;
78787;SDS011;68131;52.508;5.502;2024-03-22T00:27:23;19.35;;;9.82;;
78787;SDS011;68131;52.508;5.502;2024-03-22T00:29:51;20.45;;;10.85;;
78787;SDS011;68131;52.508;5.502;2024-03-22T00:32:17;20.15;;;9.15;;
78787;SDS011;68131;52.508;5.502;2024-03-22T00:34:44;21.15;;;10.55;;
78787;SDS011;68131;52.508;5.502;2024-03-22T00:37:11;24.05;;;9.65;;
78787;SDS011;68131;52.508;5.502;2024-03-22T00:39:40;28.17;;;10.40;;
78787;SDS011;68131;52.508;5.502;2024-03-22T00:42:06;19.25;;;9.73;;
78787;SDS011;68131;52.508;5.502;2024-03-22T00:44:33;18.38;;;9.95;;
78787;SDS011;68131;52.508;5.502;2024-03-22T00:46:59;22.75;;;10.90;;
78787;SDS011;68131;52.508;5.502;2024-03-22T00:49:26;19.70;;;9.55;;
78787;SDS011;68131;52.508;5.502;2024-03-22T00:51:53;25.60;;;10.15;;
78787;SDS011;68131;52.508;5.502;2024-03-22T00:54:19;24.02;;;10.10;;
78787;SDS011;68131;52.508;5.502;2024-03-22T00:56:49;25.95;;;12.10;;
78787;SDS011;68131;52.508;5.502;2024-03-22T00:59:15;22.73;;;9.30;;
78787;SDS011;68131;52.508;5.502;2024-03-22T01:01:42;22.85;;;9.27;;
78787;SDS011;68131;52.508;5.502;2024-03-22T01:04:08;22.55;;;9.43;;
78787;SDS011;68131;52.508;5.502;2024-03-22T01:06:40;29.48;;;10.25;;
78787;SDS011;68131;52.508;5.502;2024-03-22T01:09:06;19.33;;;9.70;;
78787;SDS011;68131;52.508;5.502;2024-03-22T01:11:33;26.35;;;10.65;;
78787;SDS011;68131;52.508;5.502;2024-03-22T01:14:02;25.45;;;9.85;;
78787;SDS011;68131;52.508;5.502;2024-03-22T01:16:29;28.45;;;10.95;;
78787;SDS011;68131;52.508;5.502;2024-03-22T01:18:55;23.90;;;10.98;;
78787;SDS011;68131;52.508;5.502;2024-03-22T01:21:22;23.23;;;10.13;;
78787;SDS011;68131;52.508;5.502;2024-03-22T01:23:48;21.40;;;9.43;;
78787;SDS011;68131;52.508;5.502;2024-03-22T01:26:15;26.83;;;11.80;;
78787;SDS011;68131;52.508;5.502;2024-03-22T01:28:41;22.42;;;10.07;;
78787;SDS011;68131;52.508;5.502;2024-03-22T01:31:13;22.80;;;10.35;;
78787;SDS011;68131;52.508;5.502;2024-03-22T01:33:42;26.52;;;11.07;;
78787;SDS011;68131;52.508;5.502;2024-03-22T01:36:08;22.08;;;10.60;;
78787;SDS011;68131;52.508;5.502;2024-03-22T01:38:35;26.33;;;10.43;;
78787;SDS011;68131;52.508;5.502;2024-03-22T01:41:01;27.15;;;10.73;;
78787;SDS011;68131;52.508;5.502;2024-03-22T01:43:28;22.20;;;9.75;;
78787;SDS011;68131;52.508;5.502;2024-03-22T01:45:55;22.85;;;10.48;;
78787;SDS011;68131;52.508;5.502;2024-03-22T01:48:24;24.63;;;10.95;;
78787;SDS011;68131;52.508;5.502;2024-03-22T01:50:51;22.80;;;8.50;;
78787;SDS011;68131;52.508;5.502;2024-03-22T01:53:18;23.85;;;10.70;;
78787;SDS011;68131;52.508;5.502;2024-03-22T01:55:50;25.33;;;10.43;;
78787;SDS011;68131;52.508;5.502;2024-03-22T01:58:17;25.40;;;10.48;;
78787;SDS011;68131;52.508;5.502;2024-03-22T02:00:44;27.45;;;11.02;;
78787;SDS011;68131;52.508;5.502;2024-03-22T02:03:11;24.90;;;10.20;;
78787;SDS011;68131;52.508;5.502;2024-03-22T02:05:40;24.38;;;9.55;;
78787;SDS011;68131;52.508;5.502;2024-03-22T02:08:07;24.00;;;10.13;;
78787;SDS011;68131;52.508;5.502;2024-03-22T02:10:33;23.25;;;9.75;;
78787;SDS011;68131;52.508;5.502;2024-03-22T02:13:00;25.42;;;10.30;;
78787;SDS011;68131;52.508;5.502;2024-03-22T02:15:31;26.55;;;9.80;;
78787;SDS011;68131;52.508;5.502;2024-03-22T02:17:57;22.67;;;10.00;;
78787;SDS011;68131;52.508;5.502;2024-03-22T02:20:24;21.92;;;9.57;;
78787;SDS011;68131;52.508;5.502;2024-03-22T02:22:54;21.10;;;8.98;;
78787;SDS011;68131;52.508;5.502;2024-03-22T02:25:23;24.70;;;8.63;;
78787;SDS011;68131;52.508;5.502;2024-03-22T02:27:50;23.35;;;9.30;;
78787;SDS011;68131;52.508;5.502;2024-03-22T02:30:17;23.05;;;9.27;;
78787;SDS011;68131;52.508;5.502;2024-03-22T02:32:45;20.13;;;9.07;;
78787;SDS011;68131;52.508;5.502;2024-03-22T02:35:12;28.55;;;10.68;;
78787;SDS011;68131;52.508;5.502;2024-03-22T02:37:40;27.88;;;9.57;;
78787;SDS011;68131;52.508;5.502;2024-03-22T02:40:07;24.30;;;10.23;;
78787;SDS011;68131;52.508;5.502;2024-03-22T02:42:37;25.73;;;10.57;;
78787;SDS011;68131;52.508;5.502;2024-03-22T02:45:04;22.20;;;10.18;;
78787;SDS011;68131;52.508;5.502;2024-03-22T02:47:31;20.83;;;8.73;;
78787;SDS011;68131;52.508;5.502;2024-03-22T02:49:58;24.48;;;10.55;;
78787;SDS011;68131;52.508;5.502;2024-03-22T02:52:24;25.95;;;8.57;;
78787;SDS011;68131;52.508;5.502;2024-03-22T02:54:51;23.15;;;11.57;;
78787;SDS011;68131;52.508;5.502;2024-03-22T02:59:48;23.83;;;9.52;;
78787;SDS011;68131;52.508;5.502;2024-03-22T03:02:14;20.85;;;8.85;;
78787;SDS011;68131;52.508;5.502;2024-03-22T03:04:41;23.42;;;9.77;;
78787;SDS011;68131;52.508;5.502;2024-03-22T03:07:09;27.42;;;10.85;;
78787;SDS011;68131;52.508;5.502;2024-03-22T03:09:36;18.40;;;8.43;;
78787;SDS011;68131;52.508;5.502;2024-03-22T03:12:03;23.42;;;10.40;;
78787;SDS011;68131;52.508;5.502;2024-03-22T03:14:29;27.63;;;9.73;;
78787;SDS011;68131;52.508;5.502;2024-03-22T03:16:58;20.48;;;9.23;;
78787;SDS011;68131;52.508;5.502;2024-03-22T03:19:25;19.90;;;9.05;;
78787;SDS011;68131;52.508;5.502;2024-03-22T03:21:51;25.50;;;10.13;;
78787;SDS011;68131;52.508;5.502;2024-03-22T03:24:18;23.75;;;9.73;;
78787;SDS011;68131;52.508;5.502;2024-03-22T03:26:49;24.25;;;9.45;;
78787;SDS011;68131;52.508;5.502;2024-03-22T03:29:16;20.83;;;8.50;;
78787;SDS011;68131;52.508;5.502;2024-03-22T03:31:42;21.77;;;9.00;;
78787;SDS011;68131;52.508;5.502;2024-03-22T03:34:11;21.25;;;8.98;;
78787;SDS011;68131;52.508;5.502;2024-03-22T03:36:38;23.75;;;10.02;;
78787;SDS011;68131;52.508;5.502;2024-03-22T03:39:06;26.80;;;9.88;;
78787;SDS011;68131;52.508;5.502;2024-03-22T03:41:35;23.67;;;8.57;;
78787;SDS011;68131;52.508;5.502;2024-03-22T03:44:02;23.33;;;9.70;;
78787;SDS011;68131;52.508;5.502;2024-03-22T03:46:28;20.17;;;8.63;;
78787;SDS011;68131;52.508;5.502;2024-03-22T03:48:55;22.42;;;8.95;;
78787;SDS011;68131;52.508;5.502;2024-03-22T03:51:24;27.17;;;9.27;;
78787;SDS011;68131;52.508;5.502;2024-03-22T03:53:50;22.08;;;8.43;;
78787;SDS011;68131;52.508;5.502;2024-03-22T03:56:17;25.67;;;9.73;;
78787;SDS011;68131;52.508;5.502;2024-03-22T03:58:45;21.15;;;8.57;;
78787;SDS011;68131;52.508;5.502;2024-03-22T04:01:12;18.98;;;8.90;;
78787;SDS011;68131;52.508;5.502;2024-03-22T04:03:39;20.60;;;9.43;;
78787;SDS011;68131;52.508;5.502;2024-03-22T04:06:06;20.02;;;8.88;;
78787;SDS011;68131;52.508;5.502;2024-03-22T04:08:35;23.85;;;10.18;;
78787;SDS011;68131;52.508;5.502;2024-03-22T04:11:02;25.02;;;9.55;;
78787;SDS011;68131;52.508;5.502;2024-03-22T04:13:29;23.35;;;9.63;;
78787;SDS011;68131;52.508;5.502;2024-03-22T04:15:58;18.55;;;8.05;;
78787;SDS011;68131;52.508;5.502;2024-03-22T04:18:25;21.33;;;9.48;;
78787;SDS011;68131;52.508;5.502;2024-03-22T04:20:54;21.02;;;8.95;;
78787;SDS011;68131;52.508;5.502;2024-03-22T04:23:22;16.67;;;8.20;;
78787;SDS011;68131;52.508;5.502;2024-03-22T04:25:56;22.80;;;9.18;;
78787;SDS011;68131;52.508;5.502;2024-03-22T04:28:23;18.08;;;8.25;;
78787;SDS011;68131;52.508;5.502;2024-03-22T04:30:56;22.85;;;9.13;;
78787;SDS011;68131;52.508;5.502;2024-03-22T04:33:25;20.67;;;9.50;;
78787;SDS011;68131;52.508;5.502;2024-03-22T04:35:52;17.00;;;9.40;;
78787;SDS011;68131;52.508;5.502;2024-03-22T04:38:19;17.63;;;8.68;;
78787;SDS011;68131;52.508;5.502;2024-03-22T04:40:46;27.13;;;9.65;;
78787;SDS011;68131;52.508;5.502;2024-03-22T04:43:15;15.63;;;7.90;;
78787;SDS011;68131;52.508;5.502;2024-03-22T04:45:42;17.65;;;8.50;;
78787;SDS011;68131;52.508;5.502;2024-03-22T04:48:14;17.80;;;8.77;;
78787;SDS011;68131;52.508;5.502;2024-03-22T04:50:44;19.67;;;7.10;;
78787;SDS011;68131;52.508;5.502;2024-03-22T04:53:12;17.70;;;7.40;;
78787;SDS011;68131;52.508;5.502;2024-03-22T04:55:38;15.07;;;7.57;;
78787;SDS011;68131;52.508;5.502;2024-03-22T04:58:06;18.75;;;7.70;;
78787;SDS011;68131;52.508;5.502;2024-03-22T05:00:35;15.00;;;8.23;;
78787;SDS011;68131;52.508;5.502;2024-03-22T05:03:02;20.98;;;8.02;;
78787;SDS011;68131;52.508;5.502;2024-03-22T05:05:28;18.52;;;6.68;;
78787;SDS011;68131;52.508;5.502;2024-03-22T05:07:55;13.38;;;7.00;;
78787;SDS011;68131;52.508;5.502;2024-03-22T05:10:21;14.75;;;6.60;;
78787;SDS011;68131;52.508;5.502;2024-03-22T05:12:48;15.90;;;7.40;;
78787;SDS011;68131;52.508;5.502;2024-03-22T05:15:16;15.80;;;6.50;;
78787;SDS011;68131;52.508;5.502;2024-03-22T05:17:45;13.27;;;6.63;;
78787;SDS011;68131;52.508;5.502;2024-03-22T05:20:12;15.65;;;6.70;;
78787;SDS011;68131;52.508;5.502;2024-03-22T05:22:39;11.63;;;6.70;;
78787;SDS011;68131;52.508;5.502;2024-03-22T05:25:06;15.25;;;5.82;;
78787;SDS011;68131;52.508;5.502;2024-03-22T05:27:33;12.82;;;6.28;;
78787;SDS011;68131;52.508;5.502;2024-03-22T05:30:00;17.80;;;6.90;;
78787;SDS011;68131;52.508;5.502;2024-03-22T05:32:27;14.73;;;6.03;;
78787;SDS011;68131;52.508;5.502;2024-03-22T05:34:56;12.30;;;6.07;;
78787;SDS011;68131;52.508;5.502;2024-03-22T05:37:22;16.38;;;5.47;;
78787;SDS011;68131;52.508;5.502;2024-03-22T05:39:49;13.60;;;5.40;;
78787;SDS011;68131;52.508;5.502;2024-03-22T05:42:16;13.73;;;6.00;;
78787;SDS011;68131;52.508;5.502;2024-03-22T05:44:43;11.93;;;5.20;;
78787;SDS011;68131;52.508;5.502;2024-03-22T05:47:10;14.30;;;6.13;;
78787;SDS011;68131;52.508;5.502;2024-03-22T05:49:37;16.42;;;6.30;;
78787;SDS011;68131;52.508;5.502;2024-03-22T05:52:06;16.35;;;6.03;;
78787;SDS011;68131;52.508;5.502;2024-03-22T05:54:33;14.52;;;6.35;;
78787;SDS011;68131;52.508;5.502;2024-03-22T05:56:59;9.63;;;5.32;;
78787;SDS011;68131;52.508;5.502;2024-03-22T05:59:26;12.45;;;6.35;;
78787;SDS011;68131;52.508;5.502;2024-03-22T06:01:53;13.20;;;4.85;;
78787;SDS011;68131;52.508;5.502;2024-03-22T06:04:21;10.65;;;5.10;;
78787;SDS011;68131;52.508;5.502;2024-03-22T06:06:47;9.38;;;4.70;;
78787;SDS011;68131;52.508;5.502;2024-03-22T06:09:19;12.82;;;5.47;;
78787;SDS011;68131;52.508;5.502;2024-03-22T06:11:47;16.10;;;5.88;;
78787;SDS011;68131;52.508;5.502;2024-03-22T06:14:14;13.52;;;4.97;;
78787;SDS011;68131;52.508;5.502;2024-03-22T06:16:42;15.88;;;5.28;;
78787;SDS011;68131;52.508;5.502;2024-03-22T06:19:09;12.75;;;4.55;;
78787;SDS011;68131;52.508;5.502;2024-03-22T06:21:35;13.68;;;5.20;;
78787;SDS011;68131;52.508;5.502;2024-03-22T06:24:02;10.23;;;4.97;;
78787;SDS011;68131;52.508;5.502;2024-03-22T06:26:32;12.77;;;4.93;;
78787;SDS011;68131;52.508;5.502;2024-03-22T06:28:58;15.40;;;3.85;;
78787;SDS011;68131;52.508;5.502;2024-03-22T06:31:25;8.82;;;4.35;;
78787;SDS011;68131;52.508;5.502;2024-03-22T06:33:52;11.50;;;3.72;;
78787;SDS011;68131;52.508;5.502;2024-03-22T06:36:18;15.30;;;4.95;;
78787;SDS011;68131;52.508;5.502;2024-03-22T06:38:45;9.80;;;3.90;;
78787;SDS011;68131;52.508;5.502;2024-03-22T06:41:11;8.20;;;4.00;;
78787;SDS011;68131;52.508;5.502;2024-03-22T06:43:42;9.23;;;3.35;;
78787;SDS011;68131;52.508;5.502;2024-03-22T06:46:08;9.55;;;4.25;;
78787;SDS011;68131;52.508;5.502;2024-03-22T06:48:35;10.77;;;3.63;;
78787;SDS011;68131;52.508;5.502;2024-03-22T06:51:01;7.38;;;2.55;;
78787;SDS011;68131;52.508;5.502;2024-03-22T06:53:28;6.35;;;2.55;;
78787;SDS011;68131;52.508;5.502;2024-03-22T06:55:54;8.88;;;2.80;;
78787;SDS011;68131;52.508;5.502;2024-03-22T06:58:21;6.38;;;2.70;;
78787;SDS011;68131;52.508;5.502;2024-03-22T07:00:50;6.60;;;2.72;;
78787;SDS011;68131;52.508;5.502;2024-03-22T07:03:17;7.85;;;2.90;;
78787;SDS011;68131;52.508;5.502;2024-03-22T07:05:43;7.45;;;3.00;;
78787;SDS011;68131;52.508;5.502;2024-03-22T07:08:10;7.78;;;3.10;;
78787;SDS011;68131;52.508;5.502;2024-03-22T07:10:38;10.70;;;3.40;;
78787;SDS011;68131;52.508;5.502;2024-03-22T07:13:04;5.50;;;3.50;;
78787;SDS011;68131;52.508;5.502;2024-03-22T07:15:31;6.00;;;3.00;;
78787;SDS011;68131;52.508;5.502;2024-03-22T07:18:00;6.00;;;2.95;;
78787;SDS011;68131;52.508;5.502;2024-03-22T07:20:27;7.75;;;3.25;;
78787;SDS011;68131;52.508;5.502;2024-03-22T07:22:53;7.55;;;2.33;;
78787;SDS011;68131;52.508;5.502;2024-03-22T07:25:20;8.05;;;3.00;;
78787;SDS011;68131;52.508;5.502;2024-03-22T07:27:46;6.95;;;2.90;;
78787;SDS011;68131;52.508;5.502;2024-03-22T07:30:13;6.93;;;2.78;;
78787;SDS011;68131;52.508;5.502;2024-03-22T07:32:40;10.93;;;2.67;;
78787;SDS011;68131;52.508;5.502;2024-03-22T07:35:09;7.55;;;3.50;;
78787;SDS011;68131;52.508;5.502;2024-03-22T07:37:36;5.38;;;2.58;;
78787;SDS011;68131;52.508;5.502;2024-03-22T07:40:02;10.80;;;3.28;;
78787;SDS011;68131;52.508;5.502;2024-03-22T07:42:29;6.72;;;2.72;;
78787;SDS011;68131;52.508;5.502;2024-03-22T07:44:56;4.82;;;2.30;;
78787;SDS011;68131;52.508;5.502;2024-03-22T07:47:23;7.75;;;2.97;;
78787;SDS011;68131;52.508;5.502;2024-03-22T07:49:50;6.93;;;2.35;;
78787;SDS011;68131;52.508;5.502;2024-03-22T07:52:19;6.15;;;2.53;;
78787;SDS011;68131;52.508;5.502;2024-03-22T07:54:46;6.28;;;3.33;;
78787;SDS011;68131;52.508;5.502;2024-03-22T07:57:13;6.18;;;2.38;;
78787;SDS011;68131;52.508;5.502;2024-03-22T07:59:39;6.22;;;3.28;;
78787;SDS011;68131;52.508;5.502;2024-03-22T08:02:06;5.93;;;2.67;;
78787;SDS011;68131;52.508;5.502;2024-03-22T08:04:32;8.85;;;3.00;;
78787;SDS011;68131;52.508;5.502;2024-03-22T08:06:59;5.07;;;2.80;;
78787;SDS011;68131;52.508;5.502;2024-03-22T08:09:29;10.10;;;2.88;;
78787;SDS011;68131;52.508;5.502;2024-03-22T08:11:55;7.50;;;3.42;;
78787;SDS011;68131;52.508;5.502;2024-03-22T08:14:23;7.38;;;2.45;;
78787;SDS011;68131;52.508;5.502;2024-03-22T08:16:50;9.52;;;3.08;;
78787;SDS011;68131;52.508;5.502;2024-03-22T08:19:16;10.85;;;3.20;;
78787;SDS011;68131;52.508;5.502;2024-03-22T08:21:43;6.03;;;3.08;;
78787;SDS011;68131;52.508;5.502;2024-03-22T08:24:09;10.38;;;3.47;;
78787;SDS011;68131;52.508;5.502;2024-03-22T08:26:38;11.68;;;3.35;;
78787;SDS011;68131;52.508;5.502;2024-03-22T08:29:05;7.85;;;2.88;;
78787;SDS011;68131;52.508;5.502;2024-03-22T08:31:31;8.00;;;3.03;;
78787;SDS011;68131;52.508;5.502;2024-03-22T08:33:58;8.18;;;3.28;;
78787;SDS011;68131;52.508;5.502;2024-03-22T08:36:27;8.75;;;3.90;;
78787;SDS011;68131;52.508;5.502;2024-03-22T08:38:54;9.60;;;4.55;;
78787;SDS011;68131;52.508;5.502;2024-03-22T08:41:23;10.15;;;4.15;;
78787;SDS011;68131;52.508;5.502;2024-03-22T08:43:53;12.23;;;4.22;;
78787;SDS011;68131;52.508;5.502;2024-03-22T08:46:19;9.25;;;3.33;;
78787;SDS011;68131;52.508;5.502;2024-03-22T08:48:46;9.45;;;3.80;;
78787;SDS011;68131;52.508;5.502;2024-03-22T08:51:12;7.35;;;3.70;;
78787;SDS011;68131;52.508;5.502;2024-03-22T08:53:39;7.80;;;3.50;;
78787;SDS011;68131;52.508;5.502;2024-03-22T08:56:06;6.88;;;3.47;;
78787;SDS011;68131;52.508;5.502;2024-03-22T08:58:32;7.07;;;3.25;;
78787;SDS011;68131;52.508;5.502;2024-03-22T09:01:01;7.35;;;3.33;;
78787;SDS011;68131;52.508;5.502;2024-03-22T09:03:28;7.05;;;4.15;;
78787;SDS011;68131;52.508;5.502;2024-03-22T09:05:55;7.60;;;3.88;;
78787;SDS011;68131;52.508;5.502;2024-03-22T09:08:22;6.82;;;3.63;;
78787;SDS011;68131;52.508;5.502;2024-03-22T09:10:48;6.07;;;3.10;;
78787;SDS011;68131;52.508;5.502;2024-03-22T09:13:17;8.00;;;3.65;;
78787;SDS011;68131;52.508;5.502;2024-03-22T09:15:44;12.27;;;3.83;;
78787;SDS011;68131;52.508;5.502;2024-03-22T09:18:13;9.27;;;3.35;;
78787;SDS011;68131;52.508;5.502;2024-03-22T09:20:40;8.57;;;2.70;;
78787;SDS011;68131;52.508;5.502;2024-03-22T09:23:06;7.30;;;3.20;;
78787;SDS011;68131;52.508;5.502;2024-03-22T09:25:33;9.77;;;4.10;;
78787;SDS011;68131;52.508;5.502;2024-03-22T09:27:59;8.30;;;3.60;;
78787;SDS011;68131;52.508;5.502;2024-03-22T09:30:26;6.60;;;3.45;;
78787;SDS011;68131;52.508;5.502;2024-03-22T09:32:53;7.40;;;3.78;;
78787;SDS011;68131;52.508;5.502;2024-03-22T09:35:22;8.75;;;3.42;;
78787;SDS011;68131;52.508;5.502;2024-03-22T09:37:49;8.60;;;3.80;;
78787;SDS011;68131;52.508;5.502;2024-03-22T09:40:15;6.95;;;3.63;;
78787;SDS011;68131;52.508;5.502;2024-03-22T09:42:42;7.85;;;3.50;;
78787;SDS011;68131;52.508;5.502;2024-03-22T09:45:10;5.95;;;3.58;;
78787;SDS011;68131;52.508;5.502;2024-03-22T09:47:37;6.38;;;3.28;;
78787;SDS011;68131;52.508;5.502;2024-03-22T09:50:05;7.55;;;2.95;;
78787;SDS011;68131;52.508;5.502;2024-03-22T09:52:36;6.55;;;3.40;;
78787;SDS011;68131;52.508;5.502;2024-03-22T09:55:08;5.85;;;3.88;;
78787;SDS011;68131;52.508;5.502;2024-03-22T09:57:35;8.27;;;3.45;;
78787;SDS011;68131;52.508;5.502;2024-03-22T10:00:06;3.92;;;2.35;;
78787;SDS011;68131;52.508;5.502;2024-03-22T10:02:37;8.00;;;3.95;;
78787;SDS011;68131;52.508;5.502;2024-03-22T10:05:04;9.27;;;3.40;;
78787;SDS011;68131;52.508;5.502;2024-03-22T10:07:31;11.93;;;3.72;;
78787;SDS011;68131;52.508;5.502;2024-03-22T10:10:01;6.10;;;2.92;;
78787;SDS011;68131;52.508;5.502;2024-03-22T10:12:28;5.40;;;3.08;;
78787;SDS011;68131;52.508;5.502;2024-03-22T10:14:54;6.40;;;3.25;;
78787;SDS011;68131;52.508;5.502;2024-03-22T10:17:26;8.32;;;3.78;;
78787;SDS011;68131;52.508;5.502;2024-03-22T10:19:52;6.93;;;2.97;;
78787;SDS011;68131;52.508;5.502;2024-03-22T10:22:19;5.00;;;2.58;;
78787;SDS011;68131;52.508;5.502;2024-03-22T10:24:46;6.68;;;2.92;;
78787;SDS011;68131;52.508;5.502;2024-03-22T10:27:15;5.10;;;2.92;;
78787;SDS011;68131;52.508;5.502;2024-03-22T10:29:42;6.55;;;3.03;;
78787;SDS011;68131;52.508;5.502;2024-03-22T10:32:08;5.43;;;2.42;;
78787;SDS011;68131;52.508;5.502;2024-03-22T10:34:36;7.20;;;3.03;;
78787;SDS011;68131;52.508;5.502;2024-03-22T10:37:03;5.18;;;2.25;;
78787;SDS011;68131;52.508;5.502;2024-03-22T10:39:30;7.35;;;2.58;;
78787;SDS011;68131;52.508;5.502;2024-03-22T10:41:57;5.97;;;2.53;;
78787;SDS011;68131;52.508;5.502;2024-03-22T10:44:27;5.70;;;2.13;;
78787;SDS011;68131;52.508;5.502;2024-03-22T10:46:53;5.32;;;3.25;;
78787;SDS011;68131;52.508;5.502;2024-03-22T10:49:25;4.07;;;2.17;;
78787;SDS011;68131;52.508;5.502;2024-03-22T10:51:54;6.50;;;2.53;;
78787;SDS011;68131;52.508;5.502;2024-03-22T10:54:25;3.90;;;2.17;;
78787;SDS011;68131;52.508;5.502;2024-03-22T10:56:55;5.85;;;2.50;;
78787;SDS011;68131;52.508;5.502;2024-03-22T10:59:23;4.05;;;2.20;;
78787;SDS011;68131;52.508;5.502;2024-03-22T11:01:52;5.00;;;2.60;;
78787;SDS011;68131;52.508;5.502;2024-03-22T11:04:19;5.78;;;2.53;;
78787;SDS011;68131;52.508;5.502;2024-03-22T11:06:47;4.40;;;2.20;;
78787;SDS011;68131;52.508;5.502;2024-03-22T11:09:18;5.32;;;3.05;;
78787;SDS011;68131;52.508;5.502;2024-03-22T11:11:47;3.75;;;2.40;;
78787;SDS011;68131;52.508;5.502;2024-03-22T11:14:13;3.83;;;2.35;;
78787;SDS011;68131;52.508;5.502;2024-03-22T11:16:42;6.15;;;2.25;;
78787;SDS011;68131;52.508;5.502;2024-03-22T11:19:12;4.03;;;2.33;;
78787;SDS011;68131;52.508;5.502;2024-03-22T11:21:39;2.80;;;2.10;;
78787;SDS011;68131;52.508;5.502;2024-03-22T11:24:06;4.47;;;2.33;;
78787;SDS011;68131;52.508;5.502;2024-03-22T11:26:32;3.20;;;2.20;;
78787;SDS011;68131;52.508;5.502;2024-03-22T11:28:59;2.97;;;2.00;;
78787;SDS011;68131;52.508;5.502;2024-03-22T11:31:26;5.60;;;2.35;;
78787;SDS011;68131;52.508;5.502;2024-03-22T11:33:53;5.10;;;2.72;;
78787;SDS011;68131;52.508;5.502;2024-03-22T11:36:25;4.80;;;2.75;;
78787;SDS011;68131;52.508;5.502;2024-03-22T11:38:52;4.65;;;2.50;;
78787;SDS011;68131;52.508;5.502;2024-03-22T11:41:19;6.07;;;3.53;;
78787;SDS011;68131;52.508;5.502;2024-03-22T11:43:47;4.43;;;2.60;;
78787;SDS011;68131;52.508;5.502;2024-03-22T11:46:15;6.65;;;2.85;;
78787;SDS011;68131;52.508;5.502;2024-03-22T11:48:42;6.25;;;3.42;;
78787;SDS011;68131;52.508;5.502;2024-03-22T11:51:09;5.75;;;3.50;;
78787;SDS011;68131;52.508;5.502;2024-03-22T11:53:39;9.50;;;3.22;;
78787;SDS011;68131;52.508;5.502;2024-03-22T11:56:14;6.63;;;4.13;;
78787;SDS011;68131;52.508;5.502;2024-03-22T11:58:45;7.63;;;3.60;;
78787;SDS011;68131;52.508;5.502;2024-03-22T12:03:39;8.80;;;3.58;;
78787;SDS011;68131;52.508;5.502;2024-03-22T12:06:06;9.38;;;3.53;;
78787;SDS011;68131;52.508;5.502;2024-03-22T12:08:34;7.50;;;3.85;;
78787;SDS011;68131;52.508;5.502;2024-03-22T12:11:04;8.27;;;4.20;;
78787;SDS011;68131;52.508;5.502;2024-03-22T12:13:32;8.25;;;3.90;;
78787;SDS011;68131;52.508;5.502;2024-03-22T12:15:58;6.60;;;3.05;;
78787;SDS011;68131;52.508;5.502;2024-03-22T12:18:28;8.95;;;3.95;;
78787;SDS011;68131;52.508;5.502;2024-03-22T12:21:03;6.00;;;3.10;;
78787;SDS011;68131;52.508;5.502;2024-03-22T12:23:32;9.63;;;2.97;;
78787;SDS011;68131;52.508;5.502;2024-03-22T12:26:03;9.65;;;5.20;;
78787;SDS011;68131;52.508;5.502;2024-03-22T12:28:30;8.15;;;3.90;;
78787;SDS011;68131;52.508;5.502;2024-03-22T12:30:58;10.20;;;3.53;;
78787;SDS011;68131;52.508;5.502;2024-03-22T12:33:28;8.45;;;4.30;;
78787;SDS011;68131;52.508;5.502;2024-03-22T12:35:55;8.40;;;4.00;;
78787;SDS011;68131;52.508;5.502;2024-03-22T12:38:21;8.02;;;3.13;;
78787;SDS011;68131;52.508;5.502;2024-03-22T12:40:48;9.27;;;3.30;;
78787;SDS011;68131;52.508;5.502;2024-03-22T12:43:18;6.72;;;3.90;;
78787;SDS011;68131;52.508;5.502;2024-03-22T12:45:45;6.40;;;3.58;;
78787;SDS011;68131;52.508;5.502;2024-03-22T12:48:11;6.60;;;3.45;;
78787;SDS011;68131;52.508;5.502;2024-03-22T12:50:38;10.73;;;4.47;;
78787;SDS011;68131;52.508;5.502;2024-03-22T12:53:07;10.35;;;3.92;;
78787;SDS011;68131;52.508;5.502;2024-03-22T12:55:33;7.85;;;3.65;;
78787;SDS011;68131;52.508;5.502;2024-03-22T12:58:00;7.82;;;3.22;;
78787;SDS011;68131;52.508;5.502;2024-03-22T13:00:29;11.15;;;4.00;;
78787;SDS011;68131;52.508;5.502;2024-03-22T13:02:57;6.78;;;3.58;;
78787;SDS011;68131;52.508;5.502;2024-03-22T13:05:24;8.18;;;3.75;;
78787;SDS011;68131;52.508;5.502;2024-03-22T13:07:51;7.13;;;3.42;;
78787;SDS011;68131;52.508;5.502;2024-03-22T13:10:18;7.95;;;3.25;;
78787;SDS011;68131;52.508;5.502;2024-03-22T13:12:45;9.52;;;3.50;;
78787;SDS011;68131;52.508;5.502;2024-03-22T13:15:15;9.90;;;3.20;;
78787;SDS011;68131;52.508;5.502;2024-03-22T13:17:44;6.97;;;2.70;;
78787;SDS011;68131;52.508;5.502;2024-03-22T13:20:10;9.43;;;3.33;;
78787;SDS011;68131;52.508;5.502;2024-03-22T13:22:37;8.75;;;3.33;;
78787;SDS011;68131;52.508;5.502;2024-03-22T13:25:04;6.55;;;2.70;;
78787;SDS011;68131;52.508;5.502;2024-03-22T13:27:32;5.47;;;2.58;;
78787;SDS011;68131;52.508;5.502;2024-03-22T13:29:59;7.07;;;2.40;;
78787;SDS011;68131;52.508;5.502;2024-03-22T13:32:25;4.70;;;2.05;;
78787;SDS011;68131;52.508;5.502;2024-03-22T13:34:55;7.50;;;2.42;;
78787;SDS011;68131;52.508;5.502;2024-03-22T13:37:21;7.68;;;2.60;;
78787;SDS011;68131;52.508;5.502;2024-03-22T13:39:48;3.90;;;1.98;;
78787;SDS011;68131;52.508;5.502;2024-03-22T13:42:15;3.63;;;2.03;;
78787;SDS011;68131;52.508;5.502;2024-03-22T13:44:42;6.00;;;1.77;;
78787;SDS011;68131;52.508;5.502;2024-03-22T13:47:13;5.65;;;1.92;;
78787;SDS011;68131;52.508;5.502;2024-03-22T13:49:39;5.65;;;2.05;;
78787;SDS011;68131;52.508;5.502;2024-03-22T13:52:09;4.95;;;2.10;;
78787;SDS011;68131;52.508;5.502;2024-03-22T13:54:35;8.68;;;2.40;;
78787;SDS011;68131;52.508;5.502;2024-03-22T13:57:02;5.00;;;1.38;;
78787;SDS011;68131;52.508;5.502;2024-03-22T13:59:29;1.85;;;1.17;;
78787;SDS011;68131;52.508;5.502;2024-03-22T14:01:56;5.22;;;1.63;;
78787;SDS011;68131;52.508;5.502;2024-03-22T14:04:22;6.30;;;1.83;;
78787;SDS011;68131;52.508;5.502;2024-03-22T14:06:49;2.78;;;1.40;;
78787;SDS011;68131;52.508;5.502;2024-03-22T14:09:18;1.90;;;1.10;;
78787;SDS011;68131;52.508;5.502;2024-03-22T14:11:45;4.10;;;1.30;;
78787;SDS011;68131;52.508;5.502;2024-03-22T14:14:12;4.45;;;1.63;;
78787;SDS011;68131;52.508;5.502;2024-03-22T14:16:39;5.82;;;1.30;;
78787;SDS011;68131;52.508;5.502;2024-03-22T14:19:06;4.57;;;1.20;;
78787;SDS011;68131;52.508;5.502;2024-03-22T14:21:34;6.28;;;1.42;;
78787;SDS011;68131;52.508;5.502;2024-03-22T14:24:01;5.47;;;1.60;;
78787;SDS011;68131;52.508;5.502;2024-03-22T14:26:31;4.68;;;1.40;;
78787;SDS011;68131;52.508;5.502;2024-03-22T14:28:58;5.07;;;1.35;;
78787;SDS011;68131;52.508;5.502;2024-03-22T14:31:24;2.28;;;1.67;;
78787;SDS011;68131;52.508;5.502;2024-03-22T14:33:51;5.32;;;2.13;;
78787;SDS011;68131;52.508;5.502;2024-03-22T14:36:17;6.90;;;1.88;;
78787;SDS011;68131;52.508;5.502;2024-03-22T14:38:46;3.05;;;1.80;;
78787;SDS011;68131;52.508;5.502;2024-03-22T14:41:12;2.83;;;1.70;;
78787;SDS011;68131;52.508;5.502;2024-03-22T14:43:41;6.15;;;1.85;;
78787;SDS011;68131;52.508;5.502;2024-03-22T14:46:11;7.80;;;1.50;;